Terminal Aerodrome Forecast
Issued by NWS Brownsville, TX

Home | Current Version | Previous Version | Text Only | Print | Product List | Glossary On
Versions: 1 2 3 4 5 6 7 8 9 10 11 12 13 14 15 16 17 18 19 20 21 22 23 24 25 26
000
FTUS44 KBRO 292320
TAFBRO
TAF
KBRO 292320Z 3000/3024 11012G20KT P6SM FEW030 SCT040 BKN050
     FM300200 12010KT P6SM SCT030 BKN200
     FM300600 14007KT P6SM BKN025
      TEMPO 3008/3012 BKN015
     FM301600 14012G18KT P6SM BKN025
     FM301900 14018G26KT P6SM SCT030 BKN040=

USA.gov is the U.S. government's official web portal to all federal, state and local government web resources and services.